Time;durP1;ratioP1;P1;durP2;ratioP2;P2;SDS_P1;SDS_P2;PMS_P1;PMS_P2;Temp;Humidity;BMP_temperature;BMP_pressure;BME280_temperature;BME280_humidity;BME280_pressure;Samples;Min_cycle;Max_cycle;Signal;HPM_P1;HPM_P2
2021/03/16 00:02:21;;;;;;;18.90;3.60;;;7.00;99.90;;;;;;5065533;28;20197;-83
2021/03/16 00:04:48;;;;;;;20.30;4.47;;;7.00;99.90;;;;;;5048458;28;20218;-87
2021/03/16 00:07:15;;;;;;;24.30;4.63;;;7.00;99.90;;;;;;5060296;28;20209;-87
2021/03/16 00:09:42;;;;;;;20.40;4.10;;;7.00;99.90;;;;;;5068699;28;20212;-88
2021/03/16 00:12:09;;;;;;;19.07;4.20;;;7.00;99.90;;;;;;5069062;28;20205;-88
2021/03/16 00:14:35;;;;;;;17.00;3.30;;;6.90;99.90;;;;;;5066679;28;20274;-83
2021/03/16 00:17:03;;;;;;;22.63;3.87;;;6.90;99.90;;;;;;5047481;28;20197;-81
2021/03/16 00:19:29;;;;;;;27.17;6.27;;;6.90;99.90;;;;;;5047363;28;20201;-81
2021/03/16 00:21:56;;;;;;;25.53;4.60;;;7.00;99.90;;;;;;5049926;28;20214;-82
2021/03/16 00:24:22;;;;;;;29.60;6.70;;;6.90;99.90;;;;;;5062709;28;20263;-87
2021/03/16 00:26:48;;;;;;;23.93;4.73;;;7.00;99.90;;;;;;5064255;28;20312;-88
2021/03/16 00:29:15;;;;;;;21.87;5.20;;;6.90;99.90;;;;;;5068244;28;20286;-88
2021/03/16 00:31:41;;;;;;;26.70;4.63;;;7.00;99.90;;;;;;5064280;28;20201;-83
2021/03/16 00:34:08;;;;;;;23.30;3.83;;;7.00;99.90;;;;;;5052657;28;20752;-87
2021/03/16 00:36:35;;;;;;;19.80;3.93;;;7.00;99.90;;;;;;5062962;28;20216;-86
2021/03/16 00:39:01;;;;;;;24.00;4.90;;;7.00;99.90;;;;;;5062853;28;20279;-84
2021/03/16 00:41:27;;;;;;;24.70;4.33;;;7.00;99.90;;;;;;5049949;28;20217;-83
2021/03/16 00:43:54;;;;;;;20.57;3.70;;;7.00;99.90;;;;;;5064367;28;20209;-83
2021/03/16 00:46:20;;;;;;;20.40;4.00;;;7.00;99.90;;;;;;5074085;28;20209;-82
2021/03/16 00:48:46;;;;;;;21.23;4.80;;;7.00;99.90;;;;;;5074512;28;20216;-83
2021/03/16 00:51:14;;;;;;;21.97;4.13;;;6.90;99.90;;;;;;5075023;28;20200;-82
2021/03/16 00:53:40;;;;;;;17.70;3.07;;;6.90;99.90;;;;;;5073331;28;20224;-82
2021/03/16 00:56:07;;;;;;;25.23;4.07;;;6.90;99.90;;;;;;5074513;28;20213;-82
2021/03/16 00:58:34;;;;;;;25.70;5.10;;;6.90;99.90;;;;;;5073866;28;20208;-82
2021/03/16 01:01:00;;;;;;;20.43;3.57;;;6.90;99.90;;;;;;5073415;28;20212;-83
2021/03/16 01:03:27;;;;;;;20.53;4.43;;;7.00;99.90;;;;;;5072579;28;20225;-83
2021/03/16 01:05:54;;;;;;;26.67;4.33;;;6.90;99.90;;;;;;5073004;28;20216;-83
2021/03/16 01:08:23;;;;;;;21.63;4.00;;;6.90;99.90;;;;;;5072163;28;20705;-81
2021/03/16 01:10:51;;;;;;;22.00;4.57;;;6.90;99.90;;;;;;5072490;28;20209;-85
2021/03/16 01:13:18;;;;;;;23.17;5.37;;;6.80;99.90;;;;;;5072568;28;20288;-81
2021/03/16 01:15:44;;;;;;;17.87;3.67;;;6.90;99.90;;;;;;5069631;28;20243;-83
2021/03/16 01:18:11;;;;;;;23.67;3.60;;;6.80;99.90;;;;;;5073166;28;20495;-81
2021/03/16 01:20:38;;;;;;;23.20;4.17;;;6.90;99.90;;;;;;5073678;28;20205;-83
2021/03/16 01:23:04;;;;;;;16.90;3.67;;;6.90;99.90;;;;;;5054340;28;20656;-82
2021/03/16 01:25:32;;;;;;;22.70;4.40;;;6.90;99.90;;;;;;5053097;28;20209;-82
2021/03/16 01:27:58;;;;;;;30.73;5.83;;;6.90;99.90;;;;;;5052803;28;20248;-82
2021/03/16 01:30:25;;;;;;;21.57;3.83;;;6.90;99.90;;;;;;5053293;28;20209;-82
2021/03/16 01:32:53;;;;;;;21.63;4.17;;;6.90;99.90;;;;;;5053059;28;20204;-81
2021/03/16 01:35:19;;;;;;;24.20;4.23;;;7.00;99.90;;;;;;5052669;28;20303;-84
2021/03/16 01:37:48;;;;;;;32.83;5.07;;;6.90;99.90;;;;;;5053087;28;20617;-81
2021/03/16 01:40:16;;;;;;;29.97;4.93;;;6.90;99.90;;;;;;5053164;28;20194;-82
2021/03/16 01:42:44;;;;;;;28.23;6.13;;;6.90;99.90;;;;;;5052666;28;20222;-80
2021/03/16 01:45:12;;;;;;;18.37;5.20;;;6.90;99.90;;;;;;5052994;28;20210;-81
2021/03/16 01:47:39;;;;;;;25.50;4.63;;;7.00;99.90;;;;;;5060541;28;20213;-83
2021/03/16 01:50:09;;;;;;;22.13;3.80;;;6.90;99.90;;;;;;5072893;28;20197;-81
2021/03/16 01:52:36;;;;;;;25.30;5.03;;;6.80;99.90;;;;;;5071543;28;20205;-87
2021/03/16 01:55:04;;;;;;;23.40;4.50;;;6.80;99.90;;;;;;5070071;28;20859;-82
2021/03/16 01:57:31;;;;;;;23.23;4.13;;;6.80;99.90;;;;;;5069537;28;20209;-85
2021/03/16 01:59:59;;;;;;;36.67;5.80;;;6.80;99.90;;;;;;5070496;28;20197;-84
2021/03/16 02:02:26;;;;;;;23.27;4.40;;;6.80;99.90;;;;;;5057719;28;20217;-81
2021/03/16 02:04:52;;;;;;;30.77;5.03;;;6.80;99.90;;;;;;5049533;28;20209;-84
2021/03/16 02:07:25;;;;;;;20.97;4.27;;;6.90;99.90;;;;;;5050313;28;20281;-82
2021/03/16 02:09:59;;;;;;;26.07;4.27;;;6.80;99.90;;;;;;5049926;28;20201;-83
2021/03/16 02:12:30;;;;;;;19.80;4.00;;;6.80;99.90;;;;;;5049213;28;20599;-81
2021/03/16 02:15:04;;;;;;;18.97;4.00;;;6.80;99.90;;;;;;5049351;28;20229;-82
2021/03/16 02:17:34;;;;;;;23.17;4.13;;;6.80;99.90;;;;;;5068975;28;20239;-83
2021/03/16 02:20:29;;;;;;;21.33;4.20;;;6.80;99.90;;;;;;5057899;28;20236;-81
2021/03/16 02:22:56;;;;;;;24.60;5.23;;;6.80;99.90;;;;;;5066191;28;20201;-82
2021/03/16 02:25:45;;;;;;;19.60;3.93;;;6.80;99.90;;;;;;5070206;28;20223;-83
2021/03/16 02:28:33;;;;;;;16.43;4.23;;;6.80;99.90;;;;;;5055109;28;20307;-84
2021/03/16 02:31:02;;;;;;;19.37;4.23;;;6.80;99.90;;;;;;5069531;28;20233;-87
2021/03/16 02:33:33;;;;;;;22.30;4.33;;;6.80;99.90;;;;;;5084467;28;20589;-83
2021/03/16 02:36:01;;;;;;;21.53;4.00;;;6.80;99.90;;;;;;5084489;28;20316;-84
2021/03/16 02:38:30;;;;;;;22.10;4.00;;;6.80;99.90;;;;;;5082367;28;20224;-85
2021/03/16 02:40:58;;;;;;;35.03;5.40;;;6.80;99.90;;;;;;5086237;28;20217;-81
2021/03/16 02:43:26;;;;;;;31.43;4.63;;;6.90;99.90;;;;;;5088980;28;20201;-83
2021/03/16 02:45:53;;;;;;;27.07;5.00;;;6.90;99.90;;;;;;5088113;28;20290;-83
2021/03/16 02:48:22;;;;;;;19.73;4.10;;;6.90;99.90;;;;;;5089543;28;20211;-88
2021/03/16 02:50:49;;;;;;;23.30;4.37;;;6.90;99.90;;;;;;5075419;28;20231;-83
2021/03/16 02:53:17;;;;;;;20.80;3.93;;;6.90;99.90;;;;;;5068702;28;20980;-83
2021/03/16 02:55:45;;;;;;;22.93;5.17;;;6.90;99.90;;;;;;5068692;28;20240;-84
2021/03/16 02:58:12;;;;;;;24.20;4.37;;;6.90;99.90;;;;;;5068487;28;20209;-83
2021/03/16 03:00:40;;;;;;;19.37;3.77;;;6.90;99.90;;;;;;5069940;28;20208;-87
2021/03/16 03:03:08;;;;;;;22.13;4.13;;;6.90;99.90;;;;;;5070597;28;20233;-85
2021/03/16 03:05:37;;;;;;;21.37;3.77;;;6.80;99.90;;;;;;5081720;28;20218;-88
2021/03/16 03:08:05;;;;;;;24.37;4.67;;;6.90;99.90;;;;;;5090466;28;20201;-87
2021/03/16 03:10:32;;;;;;;21.07;3.07;;;6.80;99.90;;;;;;5090558;28;20200;-84
2021/03/16 03:12:58;;;;;;;20.50;4.93;;;6.80;99.90;;;;;;5090202;28;20197;-88
2021/03/16 03:15:25;;;;;;;23.03;4.87;;;6.80;99.90;;;;;;5093313;28;20224;-86
2021/03/16 03:17:51;;;;;;;17.47;3.53;;;6.80;99.90;;;;;;5089849;28;20189;-87
2021/03/16 03:20:17;;;;;;;22.80;4.10;;;6.70;99.90;;;;;;5075765;28;20213;-88
2021/03/16 03:22:49;;;;;;;23.30;4.10;;;6.70;99.90;;;;;;5070906;28;20208;-88
2021/03/16 03:25:23;;;;;;;19.67;4.17;;;6.80;99.90;;;;;;5071318;28;20190;-89
2021/03/16 03:27:56;;;;;;;22.40;3.50;;;6.80;99.90;;;;;;5070473;28;20209;-88
2021/03/16 03:30:25;;;;;;;21.30;4.07;;;6.80;99.90;;;;;;5080975;28;20199;-87
2021/03/16 03:32:54;;;;;;;23.60;3.70;;;6.80;99.90;;;;;;5090926;28;20204;-87
2021/03/16 03:35:22;;;;;;;19.57;3.27;;;6.90;99.90;;;;;;5089942;28;20216;-87
2021/03/16 03:37:49;;;;;;;20.07;3.27;;;6.90;99.90;;;;;;5089587;28;20200;-89
2021/03/16 03:40:16;;;;;;;25.83;3.50;;;6.90;99.90;;;;;;5090958;28;20201;-88
2021/03/16 03:42:44;;;;;;;19.17;3.27;;;7.00;99.90;;;;;;5089214;28;20698;-88
2021/03/16 03:45:12;;;;;;;24.93;5.67;;;7.00;99.90;;;;;;5090412;28;20247;-88
2021/03/16 03:47:40;;;;;;;12.97;3.00;;;7.00;99.90;;;;;;5074553;28;20209;-88
2021/03/16 03:50:08;;;;;;;20.97;4.30;;;7.00;99.90;;;;;;5065778;28;20251;-86
2021/03/16 03:52:35;;;;;;;18.83;4.17;;;7.00;99.90;;;;;;5066835;28;20325;-85
2021/03/16 03:55:06;;;;;;;23.33;4.27;;;6.90;99.90;;;;;;5065708;28;20244;-86
2021/03/16 03:57:33;;;;;;;14.80;3.10;;;6.90;99.90;;;;;;5064206;28;20569;-89
2021/03/16 04:00:00;;;;;;;19.37;3.83;;;6.90;99.90;;;;;;5064131;28;20200;-86
2021/03/16 04:02:27;;;;;;;14.70;3.33;;;7.00;99.90;;;;;;5063409;28;20282;-87
2021/03/16 04:04:56;;;;;;;22.03;3.60;;;6.90;99.90;;;;;;5063840;28;20197;-89
2021/03/16 04:07:23;;;;;;;19.73;3.90;;;7.00;99.90;;;;;;5083167;28;20216;-88
2021/03/16 04:09:49;;;;;;;16.50;3.77;;;7.00;99.90;;;;;;5083819;28;20203;-86
2021/03/16 04:12:16;;;;;;;20.53;3.87;;;7.00;99.90;;;;;;5083722;28;20212;-87
2021/03/16 04:14:43;;;;;;;21.03;4.73;;;7.00;99.90;;;;;;5083851;28;20228;-88
2021/03/16 04:17:10;;;;;;;25.93;3.97;;;7.10;99.90;;;;;;5064179;28;20205;-87
2021/03/16 04:19:37;;;;;;;19.53;3.90;;;7.10;99.90;;;;;;5066854;28;20208;-89
2021/03/16 04:22:03;;;;;;;21.60;3.70;;;7.10;99.90;;;;;;5068653;28;20653;-85
2021/03/16 04:24:30;;;;;;;19.40;4.53;;;7.10;99.90;;;;;;5066275;28;20220;-87
2021/03/16 04:26:56;;;;;;;27.57;4.17;;;7.10;99.90;;;;;;5067652;28;20262;-89
2021/03/16 04:29:23;;;;;;;19.37;3.83;;;7.10;99.90;;;;;;5066990;28;20201;-87
2021/03/16 04:31:49;;;;;;;20.93;4.33;;;7.00;99.90;;;;;;5066447;28;20250;-88
2021/03/16 04:34:16;;;;;;;18.93;3.87;;;7.00;99.90;;;;;;5079842;28;20671;-89
2021/03/16 04:36:43;;;;;;;14.97;4.33;;;7.00;99.90;;;;;;5086747;28;20691;-89
2021/03/16 04:39:09;;;;;;;21.13;4.47;;;7.00;99.90;;;;;;5074876;28;20212;-88
2021/03/16 04:41:35;;;;;;;22.07;4.23;;;7.00;99.90;;;;;;5066636;28;20197;-88
2021/03/16 04:44:02;;;;;;;19.03;3.63;;;7.00;99.90;;;;;;5069499;28;20898;-89
2021/03/16 04:46:29;;;;;;;27.10;3.90;;;7.00;99.90;;;;;;5085469;28;20189;-86
2021/03/16 04:48:55;;;;;;;22.67;4.90;;;6.90;99.90;;;;;;5080157;28;20292;-89
2021/03/16 04:51:23;;;;;;;25.00;3.93;;;6.90;99.90;;;;;;5066300;28;20193;-88
2021/03/16 04:53:49;;;;;;;22.07;3.17;;;6.90;99.90;;;;;;5064883;28;20225;-85
2021/03/16 04:56:15;;;;;;;15.40;3.70;;;6.90;99.90;;;;;;5082494;28;20221;-87
2021/03/16 04:58:42;;;;;;;22.97;4.03;;;7.00;99.90;;;;;;5088309;28;20192;-86
2021/03/16 05:01:08;;;;;;;20.57;3.70;;;7.00;99.90;;;;;;5089463;28;20200;-86
2021/03/16 05:03:35;;;;;;;25.43;4.60;;;7.00;99.90;;;;;;5085561;28;20708;-85
2021/03/16 05:06:02;;;;;;;19.60;3.93;;;7.00;99.90;;;;;;5089313;28;20265;-88
2021/03/16 05:08:28;;;;;;;22.53;3.97;;;7.00;99.90;;;;;;5087926;28;20227;-86
2021/03/16 05:10:54;;;;;;;20.27;3.80;;;7.00;99.90;;;;;;5082108;28;20208;-85
2021/03/16 05:13:20;;;;;;;22.97;3.40;;;7.00;99.90;;;;;;5069453;28;20201;-88
2021/03/16 05:15:47;;;;;;;27.60;3.80;;;6.90;99.90;;;;;;5068522;28;20232;-86
2021/03/16 05:18:13;;;;;;;18.73;4.37;;;6.90;99.90;;;;;;5069319;28;20189;-88
2021/03/16 05:20:40;;;;;;;15.47;3.70;;;6.90;99.90;;;;;;5068800;28;20209;-85
2021/03/16 05:23:07;;;;;;;16.77;3.40;;;6.90;99.90;;;;;;5069090;28;20271;-88
2021/03/16 05:25:33;;;;;;;14.07;3.43;;;6.90;99.90;;;;;;5068854;28;20593;-84
2021/03/16 05:27:59;;;;;;;23.40;5.10;;;7.00;99.90;;;;;;5085689;28;20240;-86
2021/03/16 05:30:26;;;;;;;24.03;4.00;;;7.00;99.90;;;;;;5093372;28;20205;-87
2021/03/16 05:32:55;;;;;;;22.93;4.13;;;6.90;99.90;;;;;;5093029;28;20592;-85
2021/03/16 05:35:21;;;;;;;16.87;3.10;;;6.90;99.90;;;;;;5074812;28;20240;-87
2021/03/16 05:37:48;;;;;;;17.67;4.40;;;7.00;99.90;;;;;;5081396;28;20216;-90
2021/03/16 05:40:15;;;;;;;25.17;4.03;;;6.90;99.90;;;;;;5093168;28;20200;-86
2021/03/16 05:42:41;;;;;;;23.53;4.07;;;6.90;99.90;;;;;;5086210;28;20201;-90
2021/03/16 05:45:09;;;;;;;26.03;4.63;;;6.90;99.90;;;;;;5072101;28;20205;-87
2021/03/16 05:47:37;;;;;;;18.63;4.03;;;6.90;99.90;;;;;;5071914;28;20210;-87
2021/03/16 05:50:06;;;;;;;21.53;3.70;;;7.00;99.90;;;;;;5071460;28;20208;-85
2021/03/16 05:52:32;;;;;;;24.60;3.67;;;6.90;99.90;;;;;;5071539;28;20209;-83
2021/03/16 05:55:01;;;;;;;20.63;3.13;;;6.90;99.90;;;;;;5071185;28;20266;-84
2021/03/16 05:57:27;;;;;;;19.07;3.67;;;7.00;99.90;;;;;;5071794;28;20201;-88
2021/03/16 05:59:53;;;;;;;24.37;4.57;;;6.90;99.90;;;;;;5092568;28;20212;-89
2021/03/16 06:02:20;;;;;;;22.50;3.60;;;6.90;99.90;;;;;;5078861;28;20660;-85
2021/03/16 06:04:48;;;;;;;22.70;4.13;;;6.90;99.90;;;;;;5071851;28;20229;-84
2021/03/16 06:07:15;;;;;;;18.07;3.40;;;7.00;99.90;;;;;;5086371;28;20204;-89
2021/03/16 06:09:42;;;;;;;28.07;4.23;;;7.00;99.90;;;;;;5090246;28;20204;-85
2021/03/16 06:12:10;;;;;;;24.67;3.97;;;7.00;99.90;;;;;;5092309;28;20204;-87
2021/03/16 06:14:37;;;;;;;21.47;3.60;;;7.00;99.90;;;;;;5087499;28;20645;-91
2021/03/16 06:17:04;;;;;;;22.70;3.93;;;7.00;99.90;;;;;;5070606;28;20205;-89
2021/03/16 06:19:33;;;;;;;23.13;4.67;;;7.00;99.90;;;;;;5072057;28;20201;-87
2021/03/16 06:22:00;;;;;;;22.90;3.77;;;7.00;99.90;;;;;;5070063;28;20201;-82
2021/03/16 06:24:28;;;;;;;21.73;3.53;;;7.00;99.90;;;;;;5085913;28;20200;-86
2021/03/16 06:26:55;;;;;;;12.40;3.20;;;6.90;99.90;;;;;;5090582;28;20270;-87
2021/03/16 06:29:24;;;;;;;23.60;3.97;;;7.00;99.90;;;;;;5088336;28;20209;-88
2021/03/16 06:31:51;;;;;;;24.73;5.07;;;7.00;99.90;;;;;;5070419;28;20198;-89
2021/03/16 06:34:21;;;;;;;20.60;4.53;;;7.00;99.90;;;;;;5067379;28;20221;-85
2021/03/16 06:36:57;;;;;;;29.30;5.03;;;7.10;99.90;;;;;;5085322;28;20208;-84
2021/03/16 06:39:23;;;;;;;22.23;3.83;;;7.10;99.90;;;;;;5091276;28;20593;-89
2021/03/16 06:41:50;;;;;;;26.33;3.50;;;7.10;99.90;;;;;;5091879;28;20205;-87
2021/03/16 06:44:17;;;;;;;25.10;4.17;;;7.10;99.90;;;;;;5070450;28;20196;-87
2021/03/16 06:46:52;;;;;;;22.57;4.10;;;7.10;99.90;;;;;;5071446;28;20194;-87
2021/03/16 06:49:21;;;;;;;21.90;4.63;;;7.10;99.90;;;;;;5071605;28;20204;-86
2021/03/16 06:51:48;;;;;;;14.13;3.90;;;7.20;99.90;;;;;;5070492;28;20316;-82
2021/03/16 06:54:17;;;;;;;19.63;3.40;;;7.20;99.90;;;;;;5071202;28;20233;-84
2021/03/16 06:56:51;;;;;;;19.50;4.30;;;7.20;99.90;;;;;;5070828;28;20653;-85
2021/03/16 06:59:21;;;;;;;27.97;4.40;;;7.20;99.90;;;;;;5070829;28;20210;-87
2021/03/16 07:01:49;;;;;;;22.70;4.17;;;7.20;99.90;;;;;;5074404;28;20208;-86
2021/03/16 07:04:16;;;;;;;20.83;4.23;;;7.10;99.90;;;;;;5090922;28;20621;-82
2021/03/16 07:06:43;;;;;;;20.87;3.93;;;7.10;99.90;;;;;;5091136;28;20204;-86
2021/03/16 07:09:11;;;;;;;16.40;3.50;;;7.10;99.90;;;;;;5091195;28;20200;-87
2021/03/16 07:11:40;;;;;;;16.30;3.40;;;7.20;99.90;;;;;;5090814;28;20234;-86
2021/03/16 07:14:07;;;;;;;12.70;2.90;;;7.20;99.90;;;;;;5091208;28;20224;-84
2021/03/16 07:16:36;;;;;;;18.80;3.20;;;7.30;99.90;;;;;;5077199;28;20601;-86
2021/03/16 07:19:05;;;;;;;25.90;4.60;;;7.20;99.90;;;;;;5079600;28;20201;-88
2021/03/16 07:21:37;;;;;;;26.77;4.03;;;7.30;99.90;;;;;;5090563;28;20203;-87
2021/03/16 07:24:07;;;;;;;22.77;4.87;;;7.30;99.90;;;;;;5090682;28;20257;-81
2021/03/16 07:26:34;;;;;;;19.67;3.97;;;7.40;99.90;;;;;;5089308;28;20204;-86
2021/03/16 07:29:03;;;;;;;22.33;5.70;;;7.40;99.90;;;;;;5091199;28;20201;-87
2021/03/16 07:31:32;;;;;;;20.70;5.53;;;7.40;99.90;;;;;;5091307;28;20230;-87
2021/03/16 07:34:01;;;;;;;17.80;3.53;;;7.50;99.90;;;;;;5096609;28;20208;-86
2021/03/16 07:36:30;;;;;;;20.17;3.70;;;7.40;99.90;;;;;;5088585;28;20211;-85
2021/03/16 07:38:57;;;;;;;16.87;3.60;;;7.40;99.90;;;;;;5090344;28;20201;-86
2021/03/16 07:41:24;;;;;;;13.83;3.10;;;7.40;99.90;;;;;;5089471;28;20204;-84
2021/03/16 07:44:01;;;;;;;18.03;3.57;;;7.40;99.90;;;;;;5089263;28;20193;-88
2021/03/16 07:46:41;;;;;;;20.77;3.93;;;7.50;99.90;;;;;;5089762;28;20193;-88
2021/03/16 07:49:08;;;;;;;26.70;4.27;;;7.50;99.90;;;;;;5089880;28;20235;-82
2021/03/16 07:51:35;;;;;;;16.47;3.27;;;7.50;99.90;;;;;;5078969;28;20279;-86
2021/03/16 07:54:03;;;;;;;24.83;3.17;;;7.50;99.90;;;;;;5069541;28;20233;-87
2021/03/16 07:56:32;;;;;;;20.77;4.90;;;7.50;99.90;;;;;;5089285;28;20216;-86
2021/03/16 07:58:59;;;;;;;20.23;4.10;;;7.50;99.90;;;;;;5079904;28;20219;-85
2021/03/16 08:01:26;;;;;;;19.63;3.43;;;7.50;99.90;;;;;;5067682;28;20196;-86
2021/03/16 08:04:03;;;;;;;21.67;4.07;;;7.60;99.90;;;;;;5068890;28;20513;-85
2021/03/16 08:06:31;;;;;;;22.10;3.87;;;7.60;99.90;;;;;;5068332;28;20240;-85
2021/03/16 08:08:58;;;;;;;14.10;2.40;;;7.60;99.90;;;;;;5068431;28;20217;-85
2021/03/16 08:11:36;;;;;;;17.97;3.37;;;7.70;99.90;;;;;;5088333;28;20204;-82
2021/03/16 08:14:04;;;;;;;20.20;3.50;;;7.70;99.90;;;;;;5088468;28;20208;-85
2021/03/16 08:16:35;;;;;;;23.70;5.30;;;7.80;99.90;;;;;;5088303;28;20254;-86
2021/03/16 08:19:12;;;;;;;23.70;4.37;;;7.90;99.90;;;;;;5087019;28;20227;-85
2021/03/16 08:21:39;;;;;;;22.20;5.00;;;7.90;99.90;;;;;;5068008;28;20279;-87
2021/03/16 08:24:10;;;;;;;24.07;4.23;;;7.90;99.90;;;;;;5068800;28;20237;-86
2021/03/16 08:26:43;;;;;;;12.77;2.87;;;7.90;99.90;;;;;;5069578;28;20216;-85
2021/03/16 08:29:09;;;;;;;16.83;3.10;;;7.90;99.90;;;;;;5068300;28;20266;-83
2021/03/16 08:31:36;;;;;;;13.77;2.97;;;7.90;99.90;;;;;;5067455;28;20388;-86
2021/03/16 08:34:03;;;;;;;19.67;3.40;;;8.00;99.90;;;;;;5066438;28;20197;-86
2021/03/16 08:36:33;;;;;;;21.63;4.07;;;8.10;99.90;;;;;;5063239;28;20201;-85
2021/03/16 08:38:59;;;;;;;16.40;3.10;;;8.10;99.90;;;;;;5065804;28;20685;-84
2021/03/16 08:49:15;;;;;;;22.00;3.43;;;8.30;99.90;;;;;;4934858;28;21007;-81
2021/03/16 08:51:42;;;;;;;19.20;3.73;;;8.30;99.90;;;;;;4983477;28;20243;-83
2021/03/16 08:54:08;;;;;;;21.67;4.80;;;8.40;99.90;;;;;;4984766;28;20211;-83
2021/03/16 08:56:35;;;;;;;14.77;2.77;;;8.40;99.90;;;;;;4983537;28;20196;-84
2021/03/16 08:59:03;;;;;;;15.37;2.90;;;8.50;99.90;;;;;;4984274;28;20242;-84
2021/03/16 09:01:32;;;;;;;17.87;2.50;;;8.60;99.90;;;;;;4986143;28;20200;-83
2021/03/16 09:04:08;;;;;;;7.87;1.80;;;8.50;99.90;;;;;;4990062;28;20227;-83
2021/03/16 09:06:36;;;;;;;5.90;1.57;;;8.50;99.90;;;;;;4984859;28;20199;-88
2021/03/16 09:09:03;;;;;;;8.13;1.80;;;8.60;99.90;;;;;;4989613;28;20192;-86
2021/03/16 09:11:32;;;;;;;12.67;2.83;;;8.50;99.90;;;;;;4990051;28;20211;-84
2021/03/16 09:14:10;;;;;;;7.93;1.90;;;8.40;99.90;;;;;;4989018;28;20210;-85
2021/03/16 09:16:43;;;;;;;9.30;2.07;;;8.50;99.90;;;;;;4986781;28;20281;-83
2021/03/16 09:19:12;;;;;;;7.67;1.63;;;8.50;99.90;;;;;;4983145;28;20223;-83
2021/03/16 09:21:48;;;;;;;7.67;1.77;;;8.60;99.90;;;;;;4988655;28;20208;-81
2021/03/16 09:24:19;;;;;;;7.30;1.07;;;8.60;99.90;;;;;;4988108;28;20608;-86
2021/03/16 09:26:55;;;;;;;5.17;1.27;;;8.70;99.90;;;;;;4989568;28;20590;-82
2021/03/16 09:29:21;;;;;;;7.10;1.73;;;8.70;99.90;;;;;;4989228;28;20219;-86
2021/03/16 09:31:48;;;;;;;13.77;1.90;;;8.70;99.90;;;;;;4989345;28;20204;-83
2021/03/16 09:34:15;;;;;;;7.40;1.80;;;8.60;99.90;;;;;;4988506;28;20207;-84
2021/03/16 09:36:41;;;;;;;10.03;1.80;;;8.60;99.90;;;;;;4990314;28;20208;-86
2021/03/16 09:39:15;;;;;;;7.30;1.73;;;8.50;99.90;;;;;;4989119;28;20226;-86
2021/03/16 09:41:52;;;;;;;6.53;1.57;;;8.50;99.90;;;;;;4999615;28;20261;-86
2021/03/16 09:44:28;;;;;;;6.67;1.53;;;8.50;99.90;;;;;;4988338;28;20214;-85
2021/03/16 09:46:54;;;;;;;4.67;1.47;;;8.50;99.90;;;;;;4995279;28;20298;-86
2021/03/16 09:49:27;;;;;;;9.83;1.97;;;8.50;99.90;;;;;;5048103;28;20268;-86
2021/03/16 09:51:54;;;;;;;10.10;1.33;;;8.50;99.90;;;;;;5039990;28;20210;-85
2021/03/16 09:54:20;;;;;;;4.60;0.90;;;8.50;99.90;;;;;;5035911;28;20279;-82
2021/03/16 09:56:51;;;;;;;4.93;1.30;;;8.50;99.90;;;;;;5032261;28;20218;-81
2021/03/16 09:59:18;;;;;;;10.27;1.73;;;8.60;99.90;;;;;;5028992;28;21019;-87
2021/03/16 10:01:45;;;;;;;4.17;1.27;;;8.60;99.90;;;;;;5040237;28;20214;-83
2021/03/16 10:04:13;;;;;;;3.50;1.10;;;8.50;99.90;;;;;;5022811;28;21038;-82
2021/03/16 10:06:42;;;;;;;6.03;1.27;;;8.50;99.90;;;;;;5031166;28;20228;-85
2021/03/16 10:09:15;;;;;;;3.00;1.10;;;8.40;99.90;;;;;;5045203;28;20726;-81
2021/03/16 10:11:42;;;;;;;3.73;1.10;;;8.40;99.90;;;;;;5038031;28;20202;-83
2021/03/16 10:14:09;;;;;;;7.53;1.90;;;8.30;99.90;;;;;;5043204;28;20213;-80
2021/03/16 10:16:36;;;;;;;7.93;2.43;;;8.30;99.90;;;;;;5054915;28;20193;-79
2021/03/16 10:19:03;;;;;;;8.50;1.90;;;8.30;99.90;;;;;;5084692;28;20213;-80
2021/03/16 10:21:30;;;;;;;9.00;2.13;;;8.20;99.90;;;;;;5082354;28;20255;-79
2021/03/16 10:23:59;;;;;;;12.23;2.43;;;8.10;99.90;;;;;;5074116;28;20210;-79
2021/03/16 10:26:26;;;;;;;8.73;2.90;;;8.10;99.90;;;;;;5064079;28;20632;-80
2021/03/16 10:28:52;;;;;;;10.53;2.23;;;8.20;99.90;;;;;;5066308;28;20243;-82
2021/03/16 10:31:21;;;;;;;5.77;1.80;;;8.20;99.90;;;;;;5066236;28;20209;-81
2021/03/16 10:33:50;;;;;;;8.87;2.43;;;8.20;99.90;;;;;;5065432;28;20200;-81
2021/03/16 10:36:16;;;;;;;13.87;2.10;;;8.30;99.90;;;;;;5065663;28;20260;-80
2021/03/16 10:38:43;;;;;;;10.70;2.13;;;8.20;99.90;;;;;;5066270;28;20229;-80
2021/03/16 10:41:09;;;;;;;9.97;2.23;;;8.30;99.90;;;;;;5065690;28;20596;-80
2021/03/16 10:43:36;;;;;;;11.67;1.83;;;8.20;99.90;;;;;;5063627;28;20201;-80
2021/03/16 10:46:02;;;;;;;9.77;1.87;;;8.20;99.90;;;;;;5065172;28;20545;-81
2021/03/16 10:48:29;;;;;;;8.27;1.60;;;8.10;99.90;;;;;;5064455;28;20197;-80
2021/03/16 10:50:55;;;;;;;7.77;1.83;;;8.10;99.90;;;;;;5063687;28;20263;-81
2021/03/16 10:53:22;;;;;;;5.50;1.27;;;8.10;99.90;;;;;;5062831;28;20624;-81
2021/03/16 10:55:48;;;;;;;11.53;1.77;;;8.10;99.90;;;;;;5062361;28;20241;-81
2021/03/16 10:58:15;;;;;;;8.77;2.00;;;8.20;99.90;;;;;;5062172;28;20197;-81
2021/03/16 11:00:41;;;;;;;7.33;1.53;;;8.30;99.90;;;;;;5062728;28;20669;-81
2021/03/16 11:03:07;;;;;;;5.80;2.00;;;8.30;99.90;;;;;;5064313;28;20214;-80
2021/03/16 11:05:34;;;;;;;10.53;2.97;;;8.20;99.90;;;;;;5064016;28;20213;-79
2021/03/16 11:08:01;;;;;;;10.20;4.27;;;8.10;99.90;;;;;;5064854;28;20220;-79
2021/03/16 11:10:28;;;;;;;5.50;1.77;;;8.10;99.90;;;;;;5075615;28;20783;-79
2021/03/16 11:12:54;;;;;;;4.17;1.00;;;8.10;99.90;;;;;;5075068;28;20516;-79
2021/03/16 11:15:21;;;;;;;7.87;1.30;;;8.10;99.90;;;;;;5064951;28;20225;-79
2021/03/16 11:17:48;;;;;;;7.53;1.40;;;8.20;99.90;;;;;;5063795;28;20216;-81
2021/03/16 11:20:15;;;;;;;3.77;1.27;;;8.30;99.90;;;;;;5064220;28;20208;-80
2021/03/16 11:22:43;;;;;;;4.23;1.50;;;8.40;99.90;;;;;;5063533;28;20289;-81
2021/03/16 11:25:10;;;;;;;6.37;1.30;;;8.40;99.90;;;;;;5064644;28;20197;-81
2021/03/16 11:27:37;;;;;;;5.30;1.10;;;8.50;99.90;;;;;;5063304;28;20205;-80
2021/03/16 11:30:05;;;;;;;3.20;1.30;;;8.50;99.90;;;;;;5063672;28;20657;-80
2021/03/16 11:32:31;;;;;;;5.17;1.07;;;8.50;99.90;;;;;;5064085;28;20200;-81
2021/03/16 11:34:57;;;;;;;6.70;1.10;;;8.50;99.90;;;;;;5063797;28;20222;-81
2021/03/16 11:37:24;;;;;;;7.63;1.47;;;8.60;99.90;;;;;;5064320;28;20216;-80
2021/03/16 11:39:51;;;;;;;3.30;1.10;;;8.50;99.90;;;;;;5063579;28;20202;-79
2021/03/16 11:42:18;;;;;;;3.27;0.80;;;8.60;99.90;;;;;;5071878;28;20216;-79
2021/03/16 11:44:44;;;;;;;6.27;1.20;;;8.60;99.90;;;;;;5063010;28;20289;-80
2021/03/16 11:47:11;;;;;;;5.00;1.30;;;8.50;99.90;;;;;;5062479;28;20209;-80
2021/03/16 11:49:38;;;;;;;3.70;1.47;;;8.60;99.90;;;;;;5062369;28;20197;-80
2021/03/16 11:52:05;;;;;;;5.03;1.10;;;8.50;99.90;;;;;;5062322;28;20250;-81
2021/03/16 11:54:31;;;;;;;3.50;1.20;;;8.60;99.90;;;;;;5060308;28;20742;-81
2021/03/16 11:56:58;;;;;;;3.53;1.20;;;8.60;99.90;;;;;;5064775;28;20216;-81
2021/03/16 11:59:26;;;;;;;6.53;1.17;;;8.60;99.90;;;;;;5066043;28;20204;-82
2021/03/16 12:01:52;;;;;;;4.67;1.33;;;8.70;99.90;;;;;;5066008;28;20197;-83
2021/03/16 12:04:19;;;;;;;9.17;1.40;;;8.70;99.90;;;;;;5065760;28;20287;-82
2021/03/16 12:06:46;;;;;;;3.30;1.00;;;8.70;99.90;;;;;;5065979;28;20205;-82
2021/03/16 12:09:12;;;;;;;2.73;1.10;;;8.70;99.90;;;;;;5066822;28;20205;-81
2021/03/16 12:11:39;;;;;;;4.10;1.00;;;8.70;99.90;;;;;;5084432;28;20265;-81
2021/03/16 12:14:06;;;;;;;3.70;1.07;;;8.60;99.90;;;;;;5084653;28;20545;-81
2021/03/16 12:16:32;;;;;;;2.30;0.80;;;8.50;99.90;;;;;;5084262;28;20220;-81
2021/03/16 12:18:59;;;;;;;2.03;0.70;;;8.40;99.90;;;;;;5084161;28;20223;-78
2021/03/16 12:21:25;;;;;;;3.67;1.17;;;8.40;99.90;;;;;;5084800;28;20204;-82
2021/03/16 12:23:51;;;;;;;1.83;0.90;;;8.40;99.90;;;;;;5083810;28;20239;-79
2021/03/16 12:26:18;;;;;;;2.83;0.70;;;8.50;99.90;;;;;;5082578;28;20208;-79
2021/03/16 12:28:44;;;;;;;1.97;1.20;;;8.60;99.90;;;;;;5067164;28;20209;-77
2021/03/16 12:31:13;;;;;;;4.00;1.00;;;8.70;99.90;;;;;;5070857;28;20208;-78
2021/03/16 12:33:39;;;;;;;3.03;0.80;;;8.70;99.90;;;;;;5073706;28;20568;-78
2021/03/16 12:36:06;;;;;;;4.50;0.90;;;8.70;99.90;;;;;;5063348;28;20637;-80
2021/03/16 12:38:32;;;;;;;4.47;1.10;;;8.70;99.90;;;;;;5071319;28;20209;-78
2021/03/16 12:40:58;;;;;;;0.83;0.53;;;8.70;99.90;;;;;;5065270;28;20201;-81
2021/03/16 12:43:25;;;;;;;1.43;0.63;;;8.60;99.90;;;;;;5069938;28;20208;-81
2021/03/16 12:45:51;;;;;;;4.20;0.97;;;8.70;99.90;;;;;;5082535;28;20202;-81
2021/03/16 12:48:18;;;;;;;4.17;1.00;;;8.70;99.90;;;;;;5082000;28;20572;-80
2021/03/16 12:50:45;;;;;;;3.47;0.97;;;8.80;99.90;;;;;;5062352;28;20241;-78
2021/03/16 12:53:11;;;;;;;3.27;1.17;;;8.70;99.90;;;;;;5063524;28;20196;-78
2021/03/16 12:55:37;;;;;;;3.50;1.30;;;8.70;99.90;;;;;;5066423;28;20292;-79
2021/03/16 12:58:04;;;;;;;3.80;0.87;;;8.60;99.90;;;;;;5070514;28;20259;-79
2021/03/16 13:00:31;;;;;;;2.97;0.83;;;8.60;99.90;;;;;;5063265;28;20264;-81
2021/03/16 13:02:57;;;;;;;3.43;1.00;;;8.60;99.90;;;;;;5064032;28;20232;-81